sensor_id;sensor_type;location;lat;lon;timestamp;P1;durP1;ratioP1;P2;durP2;ratioP2
65835;SDS011;52595;51.608;7.216;2023-02-26T00:02:07;4.15;;;1.40;;
65835;SDS011;52595;51.608;7.216;2023-02-26T00:04:35;4.93;;;1.50;;
65835;SDS011;52595;51.608;7.216;2023-02-26T00:07:01;4.28;;;1.50;;
65835;SDS011;52595;51.608;7.216;2023-02-26T00:09:28;4.68;;;1.40;;
65835;SDS011;52595;51.608;7.216;2023-02-26T00:11:54;6.30;;;1.90;;
65835;SDS011;52595;51.608;7.216;2023-02-26T00:14:20;3.28;;;1.35;;
65835;SDS011;52595;51.608;7.216;2023-02-26T00:16:46;4.43;;;1.48;;
65835;SDS011;52595;51.608;7.216;2023-02-26T00:19:17;6.40;;;1.65;;
65835;SDS011;52595;51.608;7.216;2023-02-26T00:21:44;2.92;;;1.40;;
65835;SDS011;52595;51.608;7.216;2023-02-26T00:24:09;6.72;;;1.80;;
65835;SDS011;52595;51.608;7.216;2023-02-26T00:26:35;2.80;;;1.40;;
65835;SDS011;52595;51.608;7.216;2023-02-26T00:29:00;8.50;;;1.40;;
65835;SDS011;52595;51.608;7.216;2023-02-26T00:31:27;2.80;;;1.30;;
65835;SDS011;52595;51.608;7.216;2023-02-26T00:33:53;3.88;;;1.73;;
65835;SDS011;52595;51.608;7.216;2023-02-26T00:36:26;3.55;;;1.30;;
65835;SDS011;52595;51.608;7.216;2023-02-26T00:41:45;3.28;;;1.30;;
65835;SDS011;52595;51.608;7.216;2023-02-26T00:44:11;3.47;;;1.40;;
65835;SDS011;52595;51.608;7.216;2023-02-26T00:46:43;8.45;;;1.50;;
65835;SDS011;52595;51.608;7.216;2023-02-26T00:49:26;5.05;;;1.42;;
65835;SDS011;52595;51.608;7.216;2023-02-26T00:52:00;2.95;;;1.40;;
65835;SDS011;52595;51.608;7.216;2023-02-26T00:54:29;3.97;;;1.40;;
65835;SDS011;52595;51.608;7.216;2023-02-26T00:56:56;3.95;;;1.30;;
65835;SDS011;52595;51.608;7.216;2023-02-26T00:59:22;4.13;;;1.40;;
65835;SDS011;52595;51.608;7.216;2023-02-26T01:01:49;5.30;;;1.55;;
65835;SDS011;52595;51.608;7.216;2023-02-26T01:04:16;7.55;;;2.00;;
65835;SDS011;52595;51.608;7.216;2023-02-26T01:06:44;2.75;;;1.17;;
65835;SDS011;52595;51.608;7.216;2023-02-26T01:12:04;6.07;;;1.80;;
65835;SDS011;52595;51.608;7.216;2023-02-26T01:14:35;2.38;;;1.30;;
65835;SDS011;52595;51.608;7.216;2023-02-26T01:17:09;3.35;;;1.33;;
65835;SDS011;52595;51.608;7.216;2023-02-26T01:22:18;6.50;;;1.45;;
65835;SDS011;52595;51.608;7.216;2023-02-26T01:24:48;3.58;;;1.30;;
65835;SDS011;52595;51.608;7.216;2023-02-26T01:27:20;3.95;;;1.30;;
65835;SDS011;52595;51.608;7.216;2023-02-26T01:29:45;5.35;;;1.40;;
65835;SDS011;52595;51.608;7.216;2023-02-26T01:32:14;3.80;;;1.52;;
65835;SDS011;52595;51.608;7.216;2023-02-26T01:43:53;4.20;;;1.40;;
65835;SDS011;52595;51.608;7.216;2023-02-26T01:46:32;3.40;;;1.40;;
65835;SDS011;52595;51.608;7.216;2023-02-26T01:49:17;4.00;;;1.40;;
65835;SDS011;52595;51.608;7.216;2023-02-26T01:51:45;3.47;;;1.40;;
65835;SDS011;52595;51.608;7.216;2023-02-26T01:54:17;3.03;;;1.40;;
65835;SDS011;52595;51.608;7.216;2023-02-26T01:56:44;5.45;;;1.48;;
65835;SDS011;52595;51.608;7.216;2023-02-26T01:59:14;3.35;;;1.20;;
65835;SDS011;52595;51.608;7.216;2023-02-26T02:01:42;4.20;;;1.33;;
65835;SDS011;52595;51.608;7.216;2023-02-26T02:04:12;4.57;;;1.52;;
65835;SDS011;52595;51.608;7.216;2023-02-26T02:06:39;2.47;;;1.10;;
65835;SDS011;52595;51.608;7.216;2023-02-26T02:09:06;1.83;;;1.13;;
65835;SDS011;52595;51.608;7.216;2023-02-26T02:11:33;2.30;;;1.20;;
65835;SDS011;52595;51.608;7.216;2023-02-26T02:14:11;1.83;;;1.20;;
65835;SDS011;52595;51.608;7.216;2023-02-26T02:22:29;5.65;;;1.60;;
65835;SDS011;52595;51.608;7.216;2023-02-26T02:32:59;1.73;;;1.00;;
65835;SDS011;52595;51.608;7.216;2023-02-26T02:35:37;3.60;;;1.23;;
65835;SDS011;52595;51.608;7.216;2023-02-26T02:40:46;2.28;;;1.25;;
65835;SDS011;52595;51.608;7.216;2023-02-26T02:43:16;2.53;;;1.40;;
65835;SDS011;52595;51.608;7.216;2023-02-26T02:45:49;2.53;;;1.20;;
65835;SDS011;52595;51.608;7.216;2023-02-26T02:51:00;2.67;;;1.27;;
65835;SDS011;52595;51.608;7.216;2023-02-26T02:53:45;3.15;;;1.25;;
65835;SDS011;52595;51.608;7.216;2023-02-26T02:56:18;3.03;;;1.35;;
65835;SDS011;52595;51.608;7.216;2023-02-26T03:01:38;4.70;;;1.20;;
65835;SDS011;52595;51.608;7.216;2023-02-26T03:04:09;2.10;;;1.30;;
65835;SDS011;52595;51.608;7.216;2023-02-26T03:06:37;3.40;;;1.40;;
65835;SDS011;52595;51.608;7.216;2023-02-26T03:09:03;4.90;;;1.40;;
65835;SDS011;52595;51.608;7.216;2023-02-26T03:11:30;3.42;;;1.02;;
65835;SDS011;52595;51.608;7.216;2023-02-26T03:13:57;5.10;;;1.45;;
65835;SDS011;52595;51.608;7.216;2023-02-26T03:22:19;2.75;;;1.38;;
65835;SDS011;52595;51.608;7.216;2023-02-26T03:24:56;2.58;;;1.40;;
65835;SDS011;52595;51.608;7.216;2023-02-26T03:30:15;6.28;;;1.35;;
65835;SDS011;52595;51.608;7.216;2023-02-26T03:33:02;4.32;;;1.40;;
65835;SDS011;52595;51.608;7.216;2023-02-26T03:38:32;1.90;;;1.20;;
65835;SDS011;52595;51.608;7.216;2023-02-26T03:41:10;2.70;;;1.42;;
65835;SDS011;52595;51.608;7.216;2023-02-26T03:44:02;3.40;;;1.48;;
65835;SDS011;52595;51.608;7.216;2023-02-26T03:46:38;4.57;;;1.58;;
65835;SDS011;52595;51.608;7.216;2023-02-26T03:49:11;1.63;;;1.23;;
65835;SDS011;52595;51.608;7.216;2023-02-26T03:51:42;3.30;;;1.50;;
65835;SDS011;52595;51.608;7.216;2023-02-26T03:54:15;4.35;;;1.63;;
65835;SDS011;52595;51.608;7.216;2023-02-26T03:56:46;2.53;;;1.30;;
65835;SDS011;52595;51.608;7.216;2023-02-26T03:59:12;3.15;;;1.35;;
65835;SDS011;52595;51.608;7.216;2023-02-26T04:04:24;2.88;;;1.33;;
65835;SDS011;52595;51.608;7.216;2023-02-26T04:06:54;8.77;;;1.50;;
65835;SDS011;52595;51.608;7.216;2023-02-26T04:09:20;4.82;;;1.33;;
65835;SDS011;52595;51.608;7.216;2023-02-26T04:11:47;5.32;;;1.60;;
65835;SDS011;52595;51.608;7.216;2023-02-26T04:14:13;3.05;;;1.40;;
65835;SDS011;52595;51.608;7.216;2023-02-26T04:16:39;4.60;;;1.38;;
65835;SDS011;52595;51.608;7.216;2023-02-26T04:19:06;4.00;;;1.30;;
65835;SDS011;52595;51.608;7.216;2023-02-26T04:21:31;5.65;;;1.30;;
65835;SDS011;52595;51.608;7.216;2023-02-26T04:23:56;2.00;;;1.15;;
65835;SDS011;52595;51.608;7.216;2023-02-26T04:26:22;3.50;;;1.58;;
65835;SDS011;52595;51.608;7.216;2023-02-26T04:28:47;3.20;;;1.25;;
65835;SDS011;52595;51.608;7.216;2023-02-26T04:31:13;3.33;;;1.10;;
65835;SDS011;52595;51.608;7.216;2023-02-26T04:33:39;3.03;;;1.48;;
65835;SDS011;52595;51.608;7.216;2023-02-26T04:36:05;2.65;;;1.20;;
65835;SDS011;52595;51.608;7.216;2023-02-26T04:38:30;4.63;;;1.30;;
65835;SDS011;52595;51.608;7.216;2023-02-26T04:40:56;2.25;;;1.20;;
65835;SDS011;52595;51.608;7.216;2023-02-26T04:43:21;2.92;;;1.23;;
65835;SDS011;52595;51.608;7.216;2023-02-26T04:45:47;2.95;;;1.30;;
65835;SDS011;52595;51.608;7.216;2023-02-26T04:48:16;2.88;;;1.40;;
65835;SDS011;52595;51.608;7.216;2023-02-26T04:50:42;6.75;;;1.30;;
65835;SDS011;52595;51.608;7.216;2023-02-26T04:53:08;5.53;;;1.40;;
65835;SDS011;52595;51.608;7.216;2023-02-26T04:55:34;3.00;;;1.30;;
65835;SDS011;52595;51.608;7.216;2023-02-26T04:58:00;6.03;;;1.60;;
65835;SDS011;52595;51.608;7.216;2023-02-26T05:00:25;3.45;;;1.10;;
65835;SDS011;52595;51.608;7.216;2023-02-26T05:02:51;2.78;;;1.38;;
65835;SDS011;52595;51.608;7.216;2023-02-26T05:05:17;4.03;;;1.20;;
65835;SDS011;52595;51.608;7.216;2023-02-26T05:07:42;4.28;;;1.80;;
65835;SDS011;52595;51.608;7.216;2023-02-26T05:10:08;3.78;;;1.30;;
65835;SDS011;52595;51.608;7.216;2023-02-26T05:12:35;2.97;;;1.00;;
65835;SDS011;52595;51.608;7.216;2023-02-26T05:15:00;5.32;;;1.25;;
65835;SDS011;52595;51.608;7.216;2023-02-26T05:17:26;4.18;;;1.40;;
65835;SDS011;52595;51.608;7.216;2023-02-26T05:19:52;4.32;;;1.30;;
65835;SDS011;52595;51.608;7.216;2023-02-26T05:22:17;2.30;;;1.20;;
65835;SDS011;52595;51.608;7.216;2023-02-26T05:24:42;5.03;;;1.40;;
65835;SDS011;52595;51.608;7.216;2023-02-26T05:27:08;7.00;;;1.60;;
65835;SDS011;52595;51.608;7.216;2023-02-26T05:29:34;6.22;;;1.38;;
65835;SDS011;52595;51.608;7.216;2023-02-26T05:31:59;3.47;;;1.23;;
65835;SDS011;52595;51.608;7.216;2023-02-26T05:34:25;3.65;;;1.38;;
65835;SDS011;52595;51.608;7.216;2023-02-26T05:36:51;6.15;;;1.23;;
65835;SDS011;52595;51.608;7.216;2023-02-26T05:39:16;2.80;;;1.20;;
65835;SDS011;52595;51.608;7.216;2023-02-26T05:41:42;4.93;;;1.27;;
65835;SDS011;52595;51.608;7.216;2023-02-26T05:44:07;5.15;;;1.10;;
65835;SDS011;52595;51.608;7.216;2023-02-26T05:46:33;4.00;;;1.38;;
65835;SDS011;52595;51.608;7.216;2023-02-26T05:48:58;2.95;;;1.08;;
65835;SDS011;52595;51.608;7.216;2023-02-26T05:51:24;3.40;;;1.25;;
65835;SDS011;52595;51.608;7.216;2023-02-26T05:53:49;5.13;;;1.35;;
65835;SDS011;52595;51.608;7.216;2023-02-26T05:56:15;5.60;;;1.38;;
65835;SDS011;52595;51.608;7.216;2023-02-26T05:58:40;5.85;;;1.45;;
65835;SDS011;52595;51.608;7.216;2023-02-26T06:01:06;3.13;;;1.38;;
65835;SDS011;52595;51.608;7.216;2023-02-26T06:03:31;4.35;;;1.38;;
65835;SDS011;52595;51.608;7.216;2023-02-26T06:05:57;5.30;;;1.50;;
65835;SDS011;52595;51.608;7.216;2023-02-26T06:08:22;3.65;;;1.17;;
65835;SDS011;52595;51.608;7.216;2023-02-26T06:10:48;2.95;;;1.10;;
65835;SDS011;52595;51.608;7.216;2023-02-26T06:13:15;3.80;;;1.20;;
65835;SDS011;52595;51.608;7.216;2023-02-26T06:15:40;4.88;;;1.40;;
65835;SDS011;52595;51.608;7.216;2023-02-26T06:18:06;3.33;;;1.25;;
65835;SDS011;52595;51.608;7.216;2023-02-26T06:20:32;4.30;;;1.30;;
65835;SDS011;52595;51.608;7.216;2023-02-26T06:22:58;5.88;;;1.30;;
65835;SDS011;52595;51.608;7.216;2023-02-26T06:25:23;5.10;;;1.40;;
65835;SDS011;52595;51.608;7.216;2023-02-26T06:27:48;2.13;;;1.20;;
65835;SDS011;52595;51.608;7.216;2023-02-26T06:30:14;2.53;;;1.10;;
65835;SDS011;52595;51.608;7.216;2023-02-26T06:32:39;5.57;;;1.38;;
65835;SDS011;52595;51.608;7.216;2023-02-26T06:35:05;3.35;;;1.25;;
65835;SDS011;52595;51.608;7.216;2023-02-26T06:37:31;9.77;;;3.33;;
65835;SDS011;52595;51.608;7.216;2023-02-26T06:39:56;4.13;;;1.40;;
65835;SDS011;52595;51.608;7.216;2023-02-26T06:42:22;1.40;;;1.15;;
65835;SDS011;52595;51.608;7.216;2023-02-26T06:44:47;3.03;;;1.23;;
65835;SDS011;52595;51.608;7.216;2023-02-26T06:47:12;2.33;;;1.33;;
65835;SDS011;52595;51.608;7.216;2023-02-26T06:49:38;3.45;;;1.42;;
65835;SDS011;52595;51.608;7.216;2023-02-26T06:52:03;4.03;;;1.20;;
65835;SDS011;52595;51.608;7.216;2023-02-26T06:54:29;3.85;;;1.58;;
65835;SDS011;52595;51.608;7.216;2023-02-26T06:56:54;3.20;;;1.38;;
65835;SDS011;52595;51.608;7.216;2023-02-26T06:59:22;6.72;;;1.60;;
65835;SDS011;52595;51.608;7.216;2023-02-26T07:01:48;3.72;;;1.60;;
65835;SDS011;52595;51.608;7.216;2023-02-26T07:04:13;5.00;;;1.73;;
65835;SDS011;52595;51.608;7.216;2023-02-26T07:06:39;3.58;;;1.45;;
65835;SDS011;52595;51.608;7.216;2023-02-26T07:09:04;3.72;;;1.40;;
65835;SDS011;52595;51.608;7.216;2023-02-26T07:11:30;4.97;;;1.50;;
65835;SDS011;52595;51.608;7.216;2023-02-26T07:13:55;2.38;;;1.40;;
65835;SDS011;52595;51.608;7.216;2023-02-26T07:16:20;6.55;;;1.58;;
65835;SDS011;52595;51.608;7.216;2023-02-26T07:18:46;2.90;;;1.17;;
65835;SDS011;52595;51.608;7.216;2023-02-26T07:21:11;3.38;;;1.50;;
65835;SDS011;52595;51.608;7.216;2023-02-26T07:23:37;3.08;;;1.45;;
65835;SDS011;52595;51.608;7.216;2023-02-26T07:26:02;3.45;;;1.60;;
65835;SDS011;52595;51.608;7.216;2023-02-26T07:28:28;4.80;;;1.60;;
65835;SDS011;52595;51.608;7.216;2023-02-26T07:30:53;4.57;;;1.50;;
65835;SDS011;52595;51.608;7.216;2023-02-26T07:33:19;3.60;;;1.50;;
65835;SDS011;52595;51.608;7.216;2023-02-26T07:35:45;4.13;;;1.48;;
65835;SDS011;52595;51.608;7.216;2023-02-26T07:38:11;4.57;;;1.50;;
65835;SDS011;52595;51.608;7.216;2023-02-26T07:40:36;4.50;;;1.45;;
65835;SDS011;52595;51.608;7.216;2023-02-26T07:43:02;3.42;;;1.40;;
65835;SDS011;52595;51.608;7.216;2023-02-26T07:45:27;4.10;;;1.70;;
65835;SDS011;52595;51.608;7.216;2023-02-26T07:47:53;3.45;;;1.35;;
65835;SDS011;52595;51.608;7.216;2023-02-26T07:50:19;5.35;;;1.60;;
65835;SDS011;52595;51.608;7.216;2023-02-26T07:52:45;2.17;;;1.30;;
65835;SDS011;52595;51.608;7.216;2023-02-26T07:55:10;4.75;;;1.40;;
65835;SDS011;52595;51.608;7.216;2023-02-26T07:57:36;4.53;;;1.58;;
65835;SDS011;52595;51.608;7.216;2023-02-26T08:00:03;2.78;;;1.40;;
65835;SDS011;52595;51.608;7.216;2023-02-26T08:02:29;5.85;;;1.70;;
65835;SDS011;52595;51.608;7.216;2023-02-26T08:04:55;4.30;;;1.40;;
65835;SDS011;52595;51.608;7.216;2023-02-26T08:07:20;2.75;;;1.48;;
65835;SDS011;52595;51.608;7.216;2023-02-26T08:09:46;6.95;;;1.45;;
65835;SDS011;52595;51.608;7.216;2023-02-26T08:12:12;4.18;;;1.40;;
65835;SDS011;52595;51.608;7.216;2023-02-26T08:14:37;8.77;;;1.70;;
65835;SDS011;52595;51.608;7.216;2023-02-26T08:17:05;2.33;;;1.30;;
65835;SDS011;52595;51.608;7.216;2023-02-26T08:19:31;3.05;;;1.65;;
65835;SDS011;52595;51.608;7.216;2023-02-26T08:21:57;3.08;;;1.30;;
65835;SDS011;52595;51.608;7.216;2023-02-26T08:24:22;2.03;;;1.23;;
65835;SDS011;52595;51.608;7.216;2023-02-26T08:26:47;3.40;;;1.50;;
65835;SDS011;52595;51.608;7.216;2023-02-26T08:29:13;5.15;;;1.85;;
65835;SDS011;52595;51.608;7.216;2023-02-26T08:31:39;7.68;;;1.67;;
65835;SDS011;52595;51.608;7.216;2023-02-26T08:34:04;4.75;;;1.50;;
65835;SDS011;52595;51.608;7.216;2023-02-26T08:36:30;4.75;;;1.63;;
65835;SDS011;52595;51.608;7.216;2023-02-26T08:38:55;3.70;;;1.80;;
65835;SDS011;52595;51.608;7.216;2023-02-26T08:41:21;3.85;;;1.50;;
65835;SDS011;52595;51.608;7.216;2023-02-26T08:43:46;3.83;;;1.17;;
65835;SDS011;52595;51.608;7.216;2023-02-26T08:46:12;2.92;;;1.52;;
65835;SDS011;52595;51.608;7.216;2023-02-26T08:48:38;5.63;;;2.00;;
65835;SDS011;52595;51.608;7.216;2023-02-26T08:51:03;3.25;;;1.67;;
65835;SDS011;52595;51.608;7.216;2023-02-26T08:53:29;7.18;;;1.50;;
65835;SDS011;52595;51.608;7.216;2023-02-26T08:55:54;3.75;;;1.52;;
65835;SDS011;52595;51.608;7.216;2023-02-26T08:58:19;2.90;;;1.40;;
65835;SDS011;52595;51.608;7.216;2023-02-26T09:00:45;4.45;;;1.40;;
65835;SDS011;52595;51.608;7.216;2023-02-26T09:03:11;2.40;;;1.17;;
65835;SDS011;52595;51.608;7.216;2023-02-26T09:05:36;4.47;;;1.60;;
65835;SDS011;52595;51.608;7.216;2023-02-26T09:08:03;2.53;;;1.30;;
65835;SDS011;52595;51.608;7.216;2023-02-26T09:10:28;2.28;;;1.20;;
65835;SDS011;52595;51.608;7.216;2023-02-26T09:12:54;3.33;;;1.45;;
65835;SDS011;52595;51.608;7.216;2023-02-26T09:15:19;2.60;;;1.20;;
65835;SDS011;52595;51.608;7.216;2023-02-26T09:17:45;3.08;;;1.40;;
65835;SDS011;52595;51.608;7.216;2023-02-26T09:20:12;2.58;;;1.50;;
65835;SDS011;52595;51.608;7.216;2023-02-26T09:22:38;2.92;;;1.10;;
65835;SDS011;52595;51.608;7.216;2023-02-26T09:25:03;4.00;;;1.33;;
65835;SDS011;52595;51.608;7.216;2023-02-26T09:27:30;5.60;;;1.30;;
65835;SDS011;52595;51.608;7.216;2023-02-26T09:29:55;2.28;;;1.20;;
65835;SDS011;52595;51.608;7.216;2023-02-26T09:32:21;5.43;;;1.35;;
65835;SDS011;52595;51.608;7.216;2023-02-26T09:34:46;4.40;;;1.50;;
65835;SDS011;52595;51.608;7.216;2023-02-26T09:37:11;5.05;;;1.30;;
65835;SDS011;52595;51.608;7.216;2023-02-26T09:39:37;3.22;;;1.25;;
65835;SDS011;52595;51.608;7.216;2023-02-26T09:42:07;5.45;;;1.33;;
65835;SDS011;52595;51.608;7.216;2023-02-26T09:44:41;4.15;;;1.50;;
65835;SDS011;52595;51.608;7.216;2023-02-26T09:52:29;3.15;;;1.20;;
65835;SDS011;52595;51.608;7.216;2023-02-26T09:57:58;2.67;;;1.58;;
65835;SDS011;52595;51.608;7.216;2023-02-26T10:00:29;3.13;;;1.38;;
65835;SDS011;52595;51.608;7.216;2023-02-26T10:06:27;2.22;;;1.30;;
65835;SDS011;52595;51.608;7.216;2023-02-26T10:09:15;3.17;;;1.17;;
65835;SDS011;52595;51.608;7.216;2023-02-26T10:11:56;4.35;;;1.20;;
65835;SDS011;52595;51.608;7.216;2023-02-26T10:14:37;2.70;;;1.23;;
65835;SDS011;52595;51.608;7.216;2023-02-26T10:17:25;3.03;;;1.30;;
65835;SDS011;52595;51.608;7.216;2023-02-26T10:20:00;3.40;;;1.25;;
65835;SDS011;52595;51.608;7.216;2023-02-26T10:22:36;3.22;;;1.20;;
65835;SDS011;52595;51.608;7.216;2023-02-26T10:25:18;2.15;;;0.90;;
65835;SDS011;52595;51.608;7.216;2023-02-26T10:27:52;2.13;;;1.00;;
65835;SDS011;52595;51.608;7.216;2023-02-26T10:30:50;4.20;;;1.10;;
65835;SDS011;52595;51.608;7.216;2023-02-26T10:36:26;2.17;;;1.02;;
65835;SDS011;52595;51.608;7.216;2023-02-26T10:39:00;2.57;;;1.00;;
65835;SDS011;52595;51.608;7.216;2023-02-26T10:41:28;2.28;;;1.08;;
65835;SDS011;52595;51.608;7.216;2023-02-26T10:43:58;3.15;;;1.27;;
65835;SDS011;52595;51.608;7.216;2023-02-26T10:46:37;4.63;;;1.10;;
65835;SDS011;52595;51.608;7.216;2023-02-26T10:51:57;2.58;;;0.90;;
65835;SDS011;52595;51.608;7.216;2023-02-26T10:54:34;1.30;;;0.82;;
65835;SDS011;52595;51.608;7.216;2023-02-26T10:57:03;1.48;;;0.90;;
65835;SDS011;52595;51.608;7.216;2023-02-26T10:59:28;2.55;;;1.10;;
65835;SDS011;52595;51.608;7.216;2023-02-26T11:01:54;3.80;;;1.10;;
65835;SDS011;52595;51.608;7.216;2023-02-26T11:04:21;2.10;;;1.00;;
65835;SDS011;52595;51.608;7.216;2023-02-26T11:06:51;2.25;;;0.90;;
65835;SDS011;52595;51.608;7.216;2023-02-26T11:09:23;2.75;;;0.98;;
65835;SDS011;52595;51.608;7.216;2023-02-26T11:11:51;2.33;;;0.90;;
65835;SDS011;52595;51.608;7.216;2023-02-26T11:14:19;1.33;;;0.90;;
65835;SDS011;52595;51.608;7.216;2023-02-26T11:16:49;1.45;;;1.10;;
65835;SDS011;52595;51.608;7.216;2023-02-26T11:19:19;3.45;;;1.20;;
65835;SDS011;52595;51.608;7.216;2023-02-26T11:21:51;2.15;;;1.00;;
65835;SDS011;52595;51.608;7.216;2023-02-26T11:27:19;2.63;;;1.10;;
65835;SDS011;52595;51.608;7.216;2023-02-26T11:29:52;2.95;;;1.10;;
65835;SDS011;52595;51.608;7.216;2023-02-26T11:32:22;2.28;;;1.17;;
65835;SDS011;52595;51.608;7.216;2023-02-26T11:34:53;1.73;;;1.30;;
65835;SDS011;52595;51.608;7.216;2023-02-26T11:37:20;2.15;;;1.10;;
65835;SDS011;52595;51.608;7.216;2023-02-26T11:39:49;2.80;;;1.20;;
65835;SDS011;52595;51.608;7.216;2023-02-26T11:42:28;3.25;;;1.40;;
65835;SDS011;52595;51.608;7.216;2023-02-26T11:44:53;2.20;;;1.30;;
65835;SDS011;52595;51.608;7.216;2023-02-26T11:47:22;1.40;;;1.20;;
65835;SDS011;52595;51.608;7.216;2023-02-26T11:49:52;1.30;;;1.20;;
65835;SDS011;52595;51.608;7.216;2023-02-26T11:52:20;2.20;;;1.25;;
65835;SDS011;52595;51.608;7.216;2023-02-26T11:54:53;3.08;;;1.10;;
65835;SDS011;52595;51.608;7.216;2023-02-26T11:57:24;4.53;;;1.90;;
65835;SDS011;52595;51.608;7.216;2023-02-26T11:59:52;2.63;;;1.30;;
65835;SDS011;52595;51.608;7.216;2023-02-26T12:02:22;2.83;;;1.20;;
65835;SDS011;52595;51.608;7.216;2023-02-26T12:04:52;2.58;;;1.30;;
65835;SDS011;52595;51.608;7.216;2023-02-26T12:07:21;1.90;;;1.10;;
65835;SDS011;52595;51.608;7.216;2023-02-26T12:09:47;3.35;;;1.15;;
65835;SDS011;52595;51.608;7.216;2023-02-26T12:12:29;1.38;;;0.98;;
65835;SDS011;52595;51.608;7.216;2023-02-26T12:20:28;1.98;;;1.20;;
65835;SDS011;52595;51.608;7.216;2023-02-26T12:38:40;2.63;;;1.10;;
65835;SDS011;52595;51.608;7.216;2023-02-26T13:02:26;1.45;;;1.00;;
65835;SDS011;52595;51.608;7.216;2023-02-26T13:05:24;1.50;;;0.90;;
65835;SDS011;52595;51.608;7.216;2023-02-26T13:13:45;2.65;;;1.08;;
65835;SDS011;52595;51.608;7.216;2023-02-26T13:18:52;3.47;;;1.40;;
65835;SDS011;52595;51.608;7.216;2023-02-26T13:21:23;1.58;;;1.20;;
65835;SDS011;52595;51.608;7.216;2023-02-26T13:23:56;2.95;;;1.23;;
65835;SDS011;52595;51.608;7.216;2023-02-26T13:26:29;0.95;;;0.90;;
65835;SDS011;52595;51.608;7.216;2023-02-26T13:29:00;1.92;;;1.15;;
65835;SDS011;52595;51.608;7.216;2023-02-26T13:31:34;2.38;;;1.10;;
65835;SDS011;52595;51.608;7.216;2023-02-26T13:34:09;2.35;;;1.00;;
65835;SDS011;52595;51.608;7.216;2023-02-26T13:36:42;2.10;;;1.30;;
65835;SDS011;52595;51.608;7.216;2023-02-26T13:39:22;3.53;;;1.25;;
65835;SDS011;52595;51.608;7.216;2023-02-26T13:42:06;2.05;;;1.08;;
65835;SDS011;52595;51.608;7.216;2023-02-26T13:52:51;4.13;;;1.50;;
65835;SDS011;52595;51.608;7.216;2023-02-26T13:55:35;1.45;;;1.13;;
65835;SDS011;52595;51.608;7.216;2023-02-26T13:58:15;2.38;;;1.10;;
65835;SDS011;52595;51.608;7.216;2023-02-26T14:01:13;2.03;;;1.27;;
65835;SDS011;52595;51.608;7.216;2023-02-26T14:03:49;2.72;;;1.10;;
65835;SDS011;52595;51.608;7.216;2023-02-26T14:12:00;3.10;;;1.42;;
65835;SDS011;52595;51.608;7.216;2023-02-26T14:17:25;1.83;;;1.23;;
65835;SDS011;52595;51.608;7.216;2023-02-26T14:24:59;2.25;;;1.40;;
65835;SDS011;52595;51.608;7.216;2023-02-26T14:27:43;2.47;;;1.40;;
65835;SDS011;52595;51.608;7.216;2023-02-26T14:35:27;1.52;;;1.23;;
65835;SDS011;52595;51.608;7.216;2023-02-26T14:38:02;4.15;;;1.90;;
65835;SDS011;52595;51.608;7.216;2023-02-26T14:40:35;2.05;;;1.40;;
65835;SDS011;52595;51.608;7.216;2023-02-26T14:43:04;2.95;;;1.60;;
65835;SDS011;52595;51.608;7.216;2023-02-26T14:45:36;3.30;;;1.40;;
65835;SDS011;52595;51.608;7.216;2023-02-26T14:48:04;3.03;;;1.60;;
65835;SDS011;52595;51.608;7.216;2023-02-26T14:50:38;2.83;;;1.50;;
65835;SDS011;52595;51.608;7.216;2023-02-26T14:56:33;1.80;;;1.25;;
65835;SDS011;52595;51.608;7.216;2023-02-26T15:02:32;2.72;;;1.50;;
65835;SDS011;52595;51.608;7.216;2023-02-26T15:08:04;3.63;;;1.48;;
65835;SDS011;52595;51.608;7.216;2023-02-26T15:10:56;3.22;;;1.38;;
65835;SDS011;52595;51.608;7.216;2023-02-26T15:13:49;2.55;;;1.50;;
65835;SDS011;52595;51.608;7.216;2023-02-26T15:19:27;2.83;;;1.38;;
65835;SDS011;52595;51.608;7.216;2023-02-26T15:24:34;2.95;;;1.35;;
65835;SDS011;52595;51.608;7.216;2023-02-26T15:27:00;1.58;;;1.20;;
65835;SDS011;52595;51.608;7.216;2023-02-26T15:29:29;2.85;;;1.80;;
65835;SDS011;52595;51.608;7.216;2023-02-26T15:32:00;4.97;;;1.50;;
65835;SDS011;52595;51.608;7.216;2023-02-26T15:34:37;1.80;;;1.20;;
65835;SDS011;52595;51.608;7.216;2023-02-26T15:37:15;1.63;;;1.20;;
65835;SDS011;52595;51.608;7.216;2023-02-26T15:39:47;3.80;;;1.52;;
65835;SDS011;52595;51.608;7.216;2023-02-26T15:42:13;4.00;;;1.40;;
65835;SDS011;52595;51.608;7.216;2023-02-26T15:44:39;3.35;;;1.60;;
65835;SDS011;52595;51.608;7.216;2023-02-26T15:47:05;3.85;;;1.60;;
65835;SDS011;52595;51.608;7.216;2023-02-26T15:49:38;3.95;;;1.60;;
65835;SDS011;52595;51.608;7.216;2023-02-26T15:52:07;3.72;;;1.60;;
65835;SDS011;52595;51.608;7.216;2023-02-26T15:54:38;3.23;;;1.60;;
65835;SDS011;52595;51.608;7.216;2023-02-26T15:57:07;3.45;;;1.70;;
65835;SDS011;52595;51.608;7.216;2023-02-26T15:59:34;2.72;;;1.42;;
65835;SDS011;52595;51.608;7.216;2023-02-26T16:02:09;2.47;;;1.48;;
65835;SDS011;52595;51.608;7.216;2023-02-26T16:04:37;4.38;;;1.52;;
65835;SDS011;52595;51.608;7.216;2023-02-26T16:07:02;2.90;;;1.40;;
65835;SDS011;52595;51.608;7.216;2023-02-26T16:09:29;2.45;;;1.50;;
65835;SDS011;52595;51.608;7.216;2023-02-26T16:11:59;2.83;;;1.73;;
65835;SDS011;52595;51.608;7.216;2023-02-26T16:14:32;2.70;;;1.60;;
65835;SDS011;52595;51.608;7.216;2023-02-26T16:17:04;2.63;;;1.75;;
65835;SDS011;52595;51.608;7.216;2023-02-26T16:22:06;2.20;;;1.50;;
65835;SDS011;52595;51.608;7.216;2023-02-26T16:24:37;2.35;;;1.55;;
65835;SDS011;52595;51.608;7.216;2023-02-26T16:27:04;2.45;;;1.70;;
65835;SDS011;52595;51.608;7.216;2023-02-26T16:29:33;3.70;;;1.73;;
65835;SDS011;52595;51.608;7.216;2023-02-26T16:32:01;5.00;;;2.22;;
65835;SDS011;52595;51.608;7.216;2023-02-26T16:46:00;5.28;;;1.90;;
65835;SDS011;52595;51.608;7.216;2023-02-26T16:51:25;2.95;;;1.70;;
65835;SDS011;52595;51.608;7.216;2023-02-26T16:53:55;2.60;;;1.70;;
65835;SDS011;52595;51.608;7.216;2023-02-26T16:56:31;2.00;;;1.55;;
65835;SDS011;52595;51.608;7.216;2023-02-26T16:59:05;3.75;;;2.13;;
65835;SDS011;52595;51.608;7.216;2023-02-26T17:01:51;2.92;;;1.80;;
65835;SDS011;52595;51.608;7.216;2023-02-26T17:04:21;3.85;;;2.00;;
65835;SDS011;52595;51.608;7.216;2023-02-26T17:06:48;3.63;;;2.03;;
65835;SDS011;52595;51.608;7.216;2023-02-26T17:12:11;4.15;;;2.00;;
65835;SDS011;52595;51.608;7.216;2023-02-26T17:14:43;6.93;;;2.90;;
65835;SDS011;52595;51.608;7.216;2023-02-26T17:17:10;5.45;;;2.78;;
65835;SDS011;52595;51.608;7.216;2023-02-26T17:19:35;5.65;;;2.83;;
65835;SDS011;52595;51.608;7.216;2023-02-26T17:22:02;6.18;;;2.80;;
65835;SDS011;52595;51.608;7.216;2023-02-26T17:24:30;4.40;;;2.40;;
65835;SDS011;52595;51.608;7.216;2023-02-26T17:29:31;10.48;;;4.03;;
65835;SDS011;52595;51.608;7.216;2023-02-26T17:31:59;8.85;;;3.75;;
65835;SDS011;52595;51.608;7.216;2023-02-26T17:34:24;8.07;;;4.18;;
65835;SDS011;52595;51.608;7.216;2023-02-26T17:36:49;8.23;;;3.63;;
65835;SDS011;52595;51.608;7.216;2023-02-26T17:39:16;8.48;;;3.75;;
65835;SDS011;52595;51.608;7.216;2023-02-26T17:41:41;6.95;;;3.55;;
65835;SDS011;52595;51.608;7.216;2023-02-26T17:44:09;9.20;;;4.40;;
65835;SDS011;52595;51.608;7.216;2023-02-26T17:46:34;9.00;;;4.55;;
65835;SDS011;52595;51.608;7.216;2023-02-26T17:48:59;8.52;;;4.40;;
65835;SDS011;52595;51.608;7.216;2023-02-26T17:51:25;8.32;;;4.20;;
65835;SDS011;52595;51.608;7.216;2023-02-26T17:53:51;8.65;;;4.25;;
65835;SDS011;52595;51.608;7.216;2023-02-26T17:56:23;11.98;;;5.97;;
65835;SDS011;52595;51.608;7.216;2023-02-26T17:58:54;10.20;;;5.80;;
65835;SDS011;52595;51.608;7.216;2023-02-26T18:01:21;8.15;;;4.45;;
65835;SDS011;52595;51.608;7.216;2023-02-26T18:03:47;10.52;;;4.88;;
65835;SDS011;52595;51.608;7.216;2023-02-26T18:06:14;11.23;;;6.32;;
65835;SDS011;52595;51.608;7.216;2023-02-26T18:08:40;10.73;;;5.90;;
65835;SDS011;52595;51.608;7.216;2023-02-26T18:11:06;14.65;;;7.07;;